createdAt,value
2017-08-27T00:00:08.081Z,12.50
2017-08-27T00:02:36.162Z,12.90
2017-08-27T00:05:04.263Z,13.53
2017-08-27T00:07:32.354Z,14.00
2017-08-27T00:10:00.452Z,14.93
2017-08-27T00:12:29.459Z,14.17
2017-08-27T00:14:57.555Z,14.33
2017-08-27T00:17:25.731Z,13.70
2017-08-27T00:19:53.849Z,14.80
2017-08-27T00:22:21.970Z,13.07
2017-08-27T00:24:50.070Z,15.10
2017-08-27T00:27:18.419Z,13.77
2017-08-27T00:29:50.154Z,15.60
2017-08-27T00:32:18.267Z,13.53
2017-08-27T00:34:46.347Z,14.20
2017-08-27T00:37:14.500Z,14.30
2017-08-27T00:39:42.631Z,12.00
2017-08-27T00:42:10.719Z,14.37
2017-08-27T00:44:38.812Z,15.37
2017-08-27T00:47:06.902Z,15.00
2017-08-27T00:49:34.999Z,15.77
2017-08-27T00:52:03.111Z,14.50
2017-08-27T00:54:31.194Z,15.13
2017-08-27T00:56:59.328Z,15.23
2017-08-27T00:59:27.415Z,14.63
2017-08-27T01:01:55.515Z,14.77
2017-08-27T01:04:23.631Z,15.77
2017-08-27T01:06:52.648Z,15.00
2017-08-27T01:09:21.669Z,17.07
2017-08-27T01:11:50.027Z,17.27
2017-08-27T01:14:18.110Z,17.87
2017-08-27T01:16:46.224Z,16.60
2017-08-27T01:19:14.311Z,17.10
2017-08-27T01:21:42.423Z,15.80
2017-08-27T01:24:10.504Z,16.30
2017-08-27T01:26:38.596Z,15.63
2017-08-27T01:29:06.683Z,16.27
2017-08-27T01:31:34.793Z,15.90
2017-08-27T01:34:02.884Z,16.40
2017-08-27T01:36:31.896Z,17.30
2017-08-27T01:39:00.929Z,17.67
2017-08-27T01:41:29.256Z,18.23
2017-08-27T01:43:58.259Z,17.83
2017-08-27T01:46:26.338Z,18.60
2017-08-27T01:48:54.419Z,19.10
2017-08-27T01:51:22.527Z,19.33
2017-08-27T01:53:50.638Z,18.90
2017-08-27T01:56:20.640Z,18.63
2017-08-27T01:58:48.731Z,17.77
2017-08-27T02:01:16.866Z,17.93
2017-08-27T02:03:45.895Z,17.63
2017-08-27T02:06:14.879Z,17.97
2017-08-27T02:08:42.989Z,18.87
2017-08-27T02:11:11.120Z,21.30
2017-08-27T02:13:40.172Z,21.10
2017-08-27T02:16:09.026Z,22.40
2017-08-27T02:18:37.859Z,19.30
2017-08-27T02:21:07.875Z,17.80
2017-08-27T02:23:37.884Z,19.77
2017-08-27T02:26:05.979Z,19.57
2017-08-27T02:28:34.992Z,17.60
2017-08-27T02:31:03.122Z,20.30
2017-08-27T02:33:31.227Z,19.33
2017-08-27T02:35:59.311Z,19.80
2017-08-27T02:38:27.411Z,19.17
2017-08-27T02:40:55.531Z,19.07
2017-08-27T02:43:23.628Z,20.17
2017-08-27T02:45:51.748Z,20.17
2017-08-27T02:48:19.855Z,21.40
2017-08-27T02:50:47.959Z,23.30
2017-08-27T02:53:16.074Z,23.40
2017-08-27T02:55:45.071Z,22.43
2017-08-27T02:58:13.182Z,23.50
2017-08-27T03:00:41.267Z,23.43
2017-08-27T03:03:09.378Z,21.30
2017-08-27T03:05:37.479Z,22.57
2017-08-27T03:08:05.562Z,22.03
2017-08-27T03:10:33.659Z,21.60
2017-08-27T03:13:01.759Z,22.90
2017-08-27T03:15:29.852Z,22.50
2017-08-27T03:17:57.952Z,25.23
2017-08-27T03:20:26.034Z,24.73
2017-08-27T03:22:54.143Z,23.27
2017-08-27T03:25:22.239Z,24.60
2017-08-27T03:27:50.343Z,22.67
2017-08-27T03:30:18.436Z,24.20
2017-08-27T03:32:47.422Z,27.10
2017-08-27T03:35:16.450Z,24.07
2017-08-27T03:37:44.539Z,26.57
2017-08-27T03:40:12.645Z,26.93
2017-08-27T03:42:40.731Z,26.20
2017-08-27T03:45:08.835Z,38.70
2017-08-27T03:47:36.964Z,28.10
2017-08-27T03:50:05.051Z,29.03
2017-08-27T03:52:33.155Z,29.97
2017-08-27T03:55:01.276Z,29.97
2017-08-27T03:57:29.375Z,26.63
2017-08-27T03:59:57.475Z,29.13
2017-08-27T04:02:25.595Z,29.80
2017-08-27T04:04:53.688Z,30.20
2017-08-27T04:07:21.783Z,30.50
2017-08-27T04:09:50.779Z,29.07
2017-08-27T04:12:18.896Z,31.30
2017-08-27T04:14:47.019Z,29.77
2017-08-27T04:17:15.108Z,29.53
2017-08-27T04:19:44.128Z,30.50
2017-08-27T04:22:12.203Z,29.30
2017-08-27T04:24:40.312Z,28.40
2017-08-27T04:27:08.427Z,28.17
2017-08-27T04:29:37.435Z,31.30
2017-08-27T04:32:05.518Z,31.50
2017-08-27T04:34:33.636Z,32.33
2017-08-27T04:37:01.723Z,33.90
2017-08-27T04:39:31.736Z,36.67
2017-08-27T04:41:59.851Z,37.60
2017-08-27T04:44:27.935Z,38.47
2017-08-27T04:46:56.046Z,32.80
2017-08-27T04:49:24.147Z,42.03
2017-08-27T04:51:52.241Z,43.10
2017-08-27T04:54:20.315Z,43.60
2017-08-27T04:56:48.439Z,42.37
2017-08-27T04:59:16.508Z,43.37
2017-08-27T05:01:45.515Z,42.60
2017-08-27T05:04:13.616Z,47.53
2017-08-27T05:06:41.748Z,44.10
2017-08-27T05:09:10.742Z,46.47
2017-08-27T05:11:38.867Z,42.57
2017-08-27T05:14:06.967Z,46.80
2017-08-27T05:16:35.064Z,46.67
2017-08-27T05:19:03.180Z,46.10
2017-08-27T05:21:31.270Z,47.20
2017-08-27T05:24:00.284Z,49.73
2017-08-27T05:26:28.368Z,49.23
2017-08-27T05:28:56.471Z,47.43
2017-08-27T05:31:24.572Z,47.97
2017-08-27T05:33:52.660Z,48.47
2017-08-27T05:36:20.783Z,45.47
2017-08-27T05:38:48.863Z,47.07
2017-08-27T05:41:16.988Z,48.60
2017-08-27T05:43:45.074Z,49.27
2017-08-27T05:46:14.092Z,51.77
2017-08-27T05:48:42.184Z,49.20
2017-08-27T05:51:10.290Z,47.97
2017-08-27T05:53:38.387Z,52.37
2017-08-27T05:56:06.470Z,50.97
2017-08-27T05:58:34.578Z,52.43
2017-08-27T06:01:02.676Z,54.43
2017-08-27T06:03:30.782Z,53.87
2017-08-27T06:05:58.883Z,54.90
2017-08-27T06:08:26.967Z,55.40
2017-08-27T06:10:55.981Z,52.40
2017-08-27T06:13:24.059Z,55.03
2017-08-27T06:15:52.143Z,49.50
2017-08-27T06:18:20.261Z,52.70
2017-08-27T06:20:49.279Z,51.50
2017-08-27T06:23:17.368Z,50.77
2017-08-27T06:25:45.454Z,47.67
2017-08-27T06:28:13.555Z,48.70
2017-08-27T06:30:41.707Z,48.40
2017-08-27T06:33:10.715Z,49.57
2017-08-27T06:35:38.818Z,46.30
2017-08-27T06:38:06.913Z,45.90
2017-08-27T06:40:35.004Z,43.87
2017-08-27T06:43:04.019Z,41.07
2017-08-27T06:45:32.124Z,44.10
2017-08-27T06:48:00.220Z,43.13
2017-08-27T06:50:28.316Z,44.80
2017-08-27T06:52:57.368Z,42.30
2017-08-27T06:55:25.454Z,39.77
2017-08-27T06:57:53.639Z,40.70
2017-08-27T07:00:21.728Z,38.87
2017-08-27T07:02:49.824Z,38.03
2017-08-27T07:05:18.839Z,35.50
2017-08-27T07:07:46.923Z,34.30
2017-08-27T07:10:15.943Z,33.30
2017-08-27T07:12:44.020Z,31.50
2017-08-27T07:15:12.131Z,31.60
2017-08-27T07:17:40.205Z,30.40
2017-08-27T07:20:08.318Z,29.13
2017-08-27T07:22:36.414Z,29.57
2017-08-27T07:25:05.424Z,32.70
2017-08-27T07:27:33.518Z,29.37
2017-08-27T07:30:01.640Z,25.80
2017-08-27T07:32:29.743Z,26.00
2017-08-27T07:34:58.756Z,26.87
2017-08-27T07:37:26.879Z,26.47
2017-08-27T07:39:54.962Z,25.37
2017-08-27T07:42:23.071Z,26.33
2017-08-27T07:44:51.199Z,26.10
2017-08-27T07:47:19.287Z,25.27
2017-08-27T07:49:47.395Z,23.33
2017-08-27T07:52:15.504Z,23.50
2017-08-27T07:54:43.589Z,22.57
2017-08-27T07:57:11.693Z,22.30
2017-08-27T07:59:39.787Z,23.47
2017-08-27T08:02:07.883Z,21.03
2017-08-27T08:04:35.968Z,20.10
2017-08-27T08:07:04.059Z,20.53
2017-08-27T08:09:32.173Z,19.43
2017-08-27T08:12:00.304Z,19.53
2017-08-27T08:14:28.401Z,18.30
2017-08-27T08:16:56.487Z,19.70
2017-08-27T08:19:24.567Z,19.53
2017-08-27T08:21:52.672Z,17.80
2017-08-27T08:24:22.592Z,16.90
2017-08-27T08:26:50.687Z,19.70
2017-08-27T08:29:18.805Z,17.67
2017-08-27T08:31:46.903Z,16.03
2017-08-27T08:34:15.007Z,17.70
2017-08-27T08:36:43.092Z,18.80
2017-08-27T08:39:11.199Z,18.17
2017-08-27T08:41:39.296Z,17.20
2017-08-27T08:44:07.391Z,17.40
2017-08-27T08:46:35.491Z,16.30
2017-08-27T08:49:03.596Z,17.20
2017-08-27T08:51:32.547Z,24.27
2017-08-27T08:54:00.654Z,17.20
2017-08-27T08:56:29.642Z,18.50
2017-08-27T08:58:58.690Z,17.30
2017-08-27T09:01:27.112Z,15.80
2017-08-27T09:03:55.228Z,17.33
2017-08-27T09:06:23.307Z,17.80
2017-08-27T09:08:51.412Z,18.57
2017-08-27T09:11:19.511Z,17.73
2017-08-27T09:13:47.596Z,18.50
2017-08-27T09:16:15.715Z,16.90
2017-08-27T09:18:43.820Z,16.73
2017-08-27T09:21:11.928Z,16.73
2017-08-27T09:23:40.952Z,14.13
2017-08-27T09:26:09.367Z,14.57
2017-08-27T09:28:37.496Z,13.63
2017-08-27T09:31:05.628Z,14.47
2017-08-27T09:33:33.748Z,12.43
2017-08-27T09:36:01.868Z,12.50
2017-08-27T09:38:29.994Z,13.87
2017-08-27T09:40:58.252Z,14.70
2017-08-27T09:43:26.360Z,27.57
2017-08-27T09:45:54.507Z,15.07
2017-08-27T09:48:22.636Z,10.00
2017-08-27T09:50:50.786Z,9.70
2017-08-27T09:53:18.920Z,8.80
2017-08-27T09:55:46.996Z,9.57
2017-08-27T09:58:15.124Z,9.40
2017-08-27T10:00:47.123Z,17.30
2017-08-27T10:03:15.216Z,17.90
2017-08-27T10:05:43.294Z,33.90
2017-08-27T10:08:12.320Z,7.00
2017-08-27T10:10:40.417Z,5.93
2017-08-27T10:13:08.587Z,7.60
2017-08-27T10:15:36.697Z,6.50
2017-08-27T10:18:05.029Z,10.03
2017-08-27T10:20:33.739Z,6.10
2017-08-27T10:23:01.825Z,5.90
2017-08-27T10:25:29.928Z,5.40
2017-08-27T10:27:58.013Z,4.83
2017-08-27T10:30:26.117Z,4.70
2017-08-27T10:32:54.204Z,6.47
2017-08-27T10:35:24.209Z,5.23
2017-08-27T10:37:53.124Z,5.60
2017-08-27T10:40:21.220Z,5.93
2017-08-27T10:42:49.342Z,7.60
2017-08-27T10:45:17.412Z,4.90
2017-08-27T10:47:46.424Z,4.60
2017-08-27T10:50:14.511Z,4.53
2017-08-27T10:52:42.597Z,5.40
2017-08-27T10:55:10.814Z,4.90
2017-08-27T10:57:38.928Z,5.00
2017-08-27T11:00:07.035Z,6.23
2017-08-27T11:02:35.119Z,5.00
2017-08-27T11:05:03.926Z,5.20
2017-08-27T11:07:32.032Z,5.43
2017-08-27T11:10:00.140Z,7.37
2017-08-27T11:12:28.347Z,5.83
2017-08-27T11:14:56.462Z,8.77
2017-08-27T11:17:27.608Z,4.87
2017-08-27T11:19:56.425Z,5.57
2017-08-27T11:22:25.431Z,4.63
2017-08-27T11:24:53.581Z,4.47
2017-08-27T11:27:22.635Z,5.13
2017-08-27T11:29:50.733Z,6.90
2017-08-27T11:32:20.761Z,4.83
2017-08-27T11:34:48.873Z,4.60
2017-08-27T11:37:16.968Z,5.30
2017-08-27T11:39:46.587Z,4.53
2017-08-27T11:42:14.700Z,4.23
2017-08-27T11:44:44.788Z,4.33
2017-08-27T11:47:12.886Z,11.80
2017-08-27T11:49:41.886Z,5.23
2017-08-27T11:52:10.063Z,14.40
2017-08-27T11:54:38.175Z,6.60
2017-08-27T11:57:06.271Z,5.30
2017-08-27T11:59:34.368Z,5.50
2017-08-27T12:02:02.455Z,4.90
2017-08-27T12:04:30.793Z,5.30
2017-08-27T12:06:59.154Z,4.83
2017-08-27T12:09:27.244Z,4.40
2017-08-27T12:11:55.374Z,4.20
2017-08-27T12:14:23.474Z,4.10
2017-08-27T12:16:51.612Z,3.70
2017-08-27T12:19:19.702Z,4.90
2017-08-27T12:21:47.814Z,3.53
2017-08-27T12:24:15.884Z,3.20
2017-08-27T12:26:43.968Z,3.40
2017-08-27T12:29:12.064Z,3.33
2017-08-27T12:31:40.164Z,2.93
2017-08-27T12:34:09.176Z,3.80
2017-08-27T12:36:38.192Z,3.80
2017-08-27T12:39:06.304Z,3.57
2017-08-27T12:41:34.467Z,3.90
2017-08-27T12:44:02.562Z,3.63
2017-08-27T12:46:30.669Z,3.77
2017-08-27T12:48:58.813Z,3.33
2017-08-27T12:51:26.896Z,3.47
2017-08-27T12:53:54.975Z,3.60
2017-08-27T12:56:25.008Z,3.90
2017-08-27T12:58:53.639Z,3.67
2017-08-27T13:01:21.764Z,3.47
2017-08-27T13:03:49.850Z,3.20
2017-08-27T13:06:17.953Z,4.37
2017-08-27T13:08:48.434Z,6.13
2017-08-27T13:11:16.517Z,5.40
2017-08-27T13:13:44.866Z,3.63
2017-08-27T13:16:12.959Z,3.03
2017-08-27T13:18:41.932Z,3.23
2017-08-27T13:21:11.979Z,3.40
2017-08-27T13:23:40.091Z,3.23
2017-08-27T13:26:08.269Z,3.33
2017-08-27T13:28:36.385Z,4.80
2017-08-27T13:31:04.499Z,3.63
2017-08-27T13:33:36.484Z,2.90
2017-08-27T13:36:04.601Z,3.20
2017-08-27T13:38:32.698Z,3.27
2017-08-27T13:41:01.647Z,4.03
2017-08-27T13:43:29.758Z,3.37
2017-08-27T13:45:57.848Z,3.40
2017-08-27T13:48:25.952Z,3.10
2017-08-27T13:50:54.067Z,3.40
2017-08-27T13:53:23.108Z,3.00
2017-08-27T13:55:51.287Z,3.23
2017-08-27T13:58:20.247Z,3.70
2017-08-27T14:00:49.304Z,3.20
2017-08-27T14:03:17.423Z,3.20
2017-08-27T14:05:45.543Z,3.23
2017-08-27T14:08:15.555Z,3.37
2017-08-27T14:10:44.568Z,3.00
2017-08-27T14:13:13.562Z,3.40
2017-08-27T14:15:42.621Z,2.67
2017-08-27T14:18:10.732Z,3.10
2017-08-27T14:20:38.832Z,3.43
2017-08-27T14:23:06.932Z,4.57
2017-08-27T14:25:35.048Z,3.30
2017-08-27T14:28:03.326Z,7.67
2017-08-27T14:30:31.444Z,4.00
2017-08-27T14:33:03.288Z,4.77
2017-08-27T14:35:31.414Z,3.40
2017-08-27T14:37:59.509Z,2.80
2017-08-27T14:40:35.993Z,3.30
2017-08-27T14:43:04.074Z,2.83
2017-08-27T14:45:32.167Z,3.50
2017-08-27T14:48:00.276Z,3.20
2017-08-27T14:50:29.615Z,2.80
2017-08-27T14:52:57.691Z,2.77
2017-08-27T14:55:25.780Z,3.10
2017-08-27T14:57:53.891Z,3.10
2017-08-27T15:00:21.969Z,3.20
2017-08-27T15:02:52.198Z,7.57
2017-08-27T15:05:20.340Z,5.20
2017-08-27T15:07:49.375Z,3.17
2017-08-27T15:10:17.471Z,6.80
2017-08-27T15:12:45.562Z,4.23
2017-08-27T15:15:13.638Z,3.20
2017-08-27T15:17:41.720Z,6.40
2017-08-27T15:20:10.739Z,9.87
2017-08-27T15:22:38.840Z,13.50
2017-08-27T15:25:06.948Z,5.77
2017-08-27T15:27:35.094Z,4.03
2017-08-27T15:30:03.187Z,3.30
2017-08-27T15:32:31.360Z,6.33
2017-08-27T15:35:01.384Z,21.83
2017-08-27T15:37:29.484Z,13.37
2017-08-27T15:39:57.595Z,5.73
2017-08-27T15:42:25.687Z,3.50
2017-08-27T15:44:54.558Z,7.37
2017-08-27T15:47:22.651Z,4.83
2017-08-27T15:49:50.747Z,3.97
2017-08-27T15:52:18.840Z,3.90
2017-08-27T15:54:46.923Z,5.67
2017-08-27T15:57:15.008Z,5.70
2017-08-27T15:59:43.107Z,3.63
2017-08-27T16:02:12.036Z,6.30
2017-08-27T16:04:40.127Z,5.60
2017-08-27T16:07:08.212Z,3.67
2017-08-27T16:09:36.331Z,3.63
2017-08-27T16:12:04.437Z,3.60
2017-08-27T16:14:32.556Z,4.70
2017-08-27T16:17:00.639Z,6.70
2017-08-27T16:19:28.719Z,4.23
2017-08-27T16:21:56.873Z,101.57
2017-08-27T16:24:24.992Z,4.97
2017-08-27T16:26:53.141Z,3.43
2017-08-27T16:29:21.208Z,3.60
2017-08-27T16:31:49.314Z,3.70
2017-08-27T16:34:17.430Z,4.07
2017-08-27T16:36:48.696Z,3.90
2017-08-27T16:39:16.827Z,3.70
2017-08-27T16:41:44.921Z,4.80
2017-08-27T16:44:13.043Z,3.40
2017-08-27T16:46:41.148Z,6.57
2017-08-27T16:49:09.247Z,4.80
2017-08-27T16:51:37.343Z,4.20
2017-08-27T16:54:05.439Z,3.60
2017-08-27T16:56:33.532Z,5.20
2017-08-27T16:59:01.635Z,53.60
2017-08-27T17:01:29.753Z,4.23
2017-08-27T17:03:57.856Z,4.03
2017-08-27T17:06:25.948Z,8.20
2017-08-27T17:08:54.050Z,4.90
2017-08-27T17:11:22.143Z,3.60
2017-08-27T17:13:50.253Z,4.00
2017-08-27T17:16:18.342Z,4.20
2017-08-27T17:18:47.348Z,4.00
2017-08-27T17:21:15.444Z,3.73
2017-08-27T17:23:43.527Z,7.97
2017-08-27T17:26:11.636Z,7.03
2017-08-27T17:28:39.739Z,17.50
2017-08-27T17:31:07.843Z,4.83
2017-08-27T17:33:35.952Z,4.90
2017-08-27T17:36:04.792Z,3.93
2017-08-27T17:38:32.899Z,4.30
2017-08-27T17:41:00.995Z,8.20
2017-08-27T17:43:29.092Z,6.00
2017-08-27T17:45:57.194Z,9.00
2017-08-27T17:48:25.290Z,4.70
2017-08-27T17:50:53.369Z,8.30
2017-08-27T17:53:22.271Z,24.33
2017-08-27T17:55:51.115Z,12.73
2017-08-27T17:58:19.219Z,7.10
2017-08-27T18:00:47.347Z,10.17
2017-08-27T18:03:15.467Z,6.30
2017-08-27T18:05:43.617Z,4.00
2017-08-27T18:08:12.279Z,9.70
2017-08-27T18:10:40.428Z,17.70
2017-08-27T18:13:08.560Z,17.40
2017-08-27T18:15:38.042Z,12.33
2017-08-27T18:18:06.176Z,6.27
2017-08-27T18:20:34.283Z,4.03
2017-08-27T18:23:02.470Z,3.93
2017-08-27T18:25:30.561Z,3.80
2017-08-27T18:27:58.678Z,5.20
2017-08-27T18:30:26.789Z,6.00
2017-08-27T18:32:54.891Z,8.07
2017-08-27T18:35:24.010Z,5.43
2017-08-27T18:37:52.108Z,3.90
2017-08-27T18:40:20.216Z,3.90
2017-08-27T18:42:48.332Z,3.80
2017-08-27T18:45:16.623Z,8.80
2017-08-27T18:47:44.752Z,4.80
2017-08-27T18:50:12.835Z,20.90
2017-08-27T18:52:40.983Z,42.77
2017-08-27T18:55:09.109Z,31.57
2017-08-27T18:57:38.979Z,8.40
2017-08-27T19:00:07.092Z,6.27
2017-08-27T19:02:36.968Z,3.63
2017-08-27T19:05:05.107Z,3.70
2017-08-27T19:07:33.256Z,3.30
2017-08-27T19:10:01.396Z,3.50
2017-08-27T19:12:29.535Z,3.80
2017-08-27T19:14:58.364Z,3.50
2017-08-27T19:17:26.498Z,3.63
2017-08-27T19:19:54.591Z,4.10
2017-08-27T19:22:22.732Z,3.50
2017-08-27T19:24:50.836Z,4.03
2017-08-27T19:27:18.954Z,5.30
2017-08-27T19:29:47.075Z,3.57
2017-08-27T19:32:15.177Z,3.50
2017-08-27T19:34:43.279Z,11.77
2017-08-27T19:37:11.388Z,10.60
2017-08-27T19:39:39.561Z,20.83
2017-08-27T19:42:07.645Z,6.40
2017-08-27T19:44:35.749Z,4.23
2017-08-27T19:47:03.934Z,3.63
2017-08-27T19:49:32.064Z,4.33
2017-08-27T19:52:00.179Z,3.80
2017-08-27T19:54:28.308Z,3.87
2017-08-27T19:56:57.664Z,6.90
2017-08-27T19:59:26.055Z,9.57
2017-08-27T20:01:54.168Z,13.97
2017-08-27T20:04:22.273Z,6.53
2017-08-27T20:06:50.396Z,4.80
2017-08-27T20:09:18.528Z,11.87
2017-08-27T20:11:48.691Z,5.13
2017-08-27T20:14:16.846Z,4.50
2017-08-27T20:16:45.039Z,3.60
2017-08-27T20:19:13.126Z,3.70
2017-08-27T20:21:41.269Z,4.40
2017-08-27T20:24:09.372Z,6.77
2017-08-27T20:26:37.508Z,3.70
2017-08-27T20:29:05.941Z,3.90
2017-08-27T20:31:35.952Z,3.97
2017-08-27T20:34:04.057Z,3.80
2017-08-27T20:36:32.165Z,4.27
2017-08-27T20:39:01.189Z,4.53
2017-08-27T20:41:29.305Z,4.27
2017-08-27T20:43:57.431Z,3.83
2017-08-27T20:46:25.528Z,3.70
2017-08-27T20:48:54.608Z,4.13
2017-08-27T20:51:23.451Z,4.17
2017-08-27T20:53:51.609Z,4.20
2017-08-27T20:56:19.732Z,13.97
2017-08-27T20:58:47.817Z,13.07
2017-08-27T21:01:15.921Z,7.27
2017-08-27T21:03:44.016Z,8.57
2017-08-27T21:06:12.135Z,4.40
2017-08-27T21:08:40.267Z,4.40
2017-08-27T21:11:08.399Z,3.87
2017-08-27T21:13:36.503Z,3.17
2017-08-27T21:16:04.604Z,4.00
2017-08-27T21:18:33.636Z,3.53
2017-08-27T21:21:01.727Z,3.87
2017-08-27T21:23:29.818Z,3.63
2017-08-27T21:25:58.032Z,4.30
2017-08-27T21:28:26.153Z,4.70
2017-08-27T21:30:55.459Z,3.83
2017-08-27T21:33:23.568Z,6.70
2017-08-27T21:35:51.694Z,4.60
2017-08-27T21:38:20.720Z,3.87
2017-08-27T21:40:48.833Z,3.90
2017-08-27T21:43:17.283Z,3.27
2017-08-27T21:45:47.298Z,3.80
2017-08-27T21:48:15.428Z,3.20
2017-08-27T21:50:43.532Z,4.07
2017-08-27T21:53:11.627Z,3.63
2017-08-27T21:55:39.720Z,3.77
2017-08-27T21:58:07.865Z,3.40
2017-08-27T22:00:36.869Z,3.67
2017-08-27T22:03:08.325Z,3.30
2017-08-27T22:05:37.376Z,3.73
2017-08-27T22:08:05.493Z,4.07
2017-08-27T22:10:33.601Z,4.07
2017-08-27T22:13:02.600Z,3.77
2017-08-27T22:15:30.703Z,3.47
2017-08-27T22:17:58.793Z,4.30
2017-08-27T22:20:27.343Z,4.00
2017-08-27T22:22:56.355Z,3.50
2017-08-27T22:25:24.447Z,4.43
2017-08-27T22:27:52.588Z,3.60
2017-08-27T22:30:20.695Z,4.23
2017-08-27T22:32:48.799Z,3.87
2017-08-27T22:35:16.886Z,4.30
2017-08-27T22:37:45.916Z,4.17
2017-08-27T22:40:13.996Z,4.90
2017-08-27T22:42:42.100Z,3.50
2017-08-27T22:45:10.195Z,4.23
2017-08-27T22:47:38.284Z,4.53
2017-08-27T22:50:06.396Z,4.37
2017-08-27T22:52:34.493Z,4.30
2017-08-27T22:55:02.584Z,4.43
2017-08-27T22:57:30.708Z,4.57
2017-08-27T22:59:58.786Z,5.27
2017-08-27T23:02:27.767Z,4.70
2017-08-27T23:04:55.843Z,4.90
2017-08-27T23:07:23.952Z,5.50
2017-08-27T23:09:52.044Z,5.50
2017-08-27T23:12:20.147Z,6.03
2017-08-27T23:14:48.263Z,5.73
2017-08-27T23:17:16.366Z,5.50
2017-08-27T23:19:45.380Z,5.60
2017-08-27T23:22:13.471Z,5.73
2017-08-27T23:24:41.600Z,6.10
2017-08-27T23:27:09.703Z,6.30
2017-08-27T23:29:37.888Z,5.77
2017-08-27T23:32:05.963Z,5.60
2017-08-27T23:34:34.059Z,5.20
2017-08-27T23:37:02.228Z,5.63
2017-08-27T23:39:30.312Z,5.40
2017-08-27T23:41:58.402Z,5.20
2017-08-27T23:44:26.515Z,5.70
2017-08-27T23:46:54.630Z,4.97
2017-08-27T23:49:22.733Z,6.03
2017-08-27T23:51:50.858Z,5.90
2017-08-27T23:54:18.971Z,6.10
2017-08-27T23:56:47.097Z,5.10
2017-08-27T23:59:16.011Z,5.83
